• Join FlightAware (Why Join?)
  • Login
  • US Flag 
02:34AM EDT


 

Airport Tracker/Info


-or-


 

Live Flight TrackerFlight Track Log ✈ UAL498 ✈ 18-Jun-2013 ✈ CYVR - KSFO

Flight Track Log - Related Links

Times and Time Zones

All times are in EDT time to prevent confusion due to time zone crossing. See the UAL498 flight status page for this flight to view local times or setup timezone preferences in your user account.

Time Position Orientation Groundspeed Altitude Reporting Facility
EDT Latitude Longitude Course Direction KTS MPH feet Rate Location/Type
02:19AM 49.1667 -123.2667 180° South 170 196 2,000  Level Vancouver Center
02:20AM 49.1500 -123.3333 249° West 230 265 5,000 3,420 Climbing Vancouver Center
02:21AM 48.7650 -123.1482 204° Southwest  Level Estimated
02:21AM 49.0833 -123.3833 206° Southwest 270 311 8,900  Level Vancouver Center
02:22AM 48.6578 -123.1392 171° South  Level Estimated
02:22AM 49.0167 -123.4667 219° Southwest 320 368 11,300  Level Vancouver Center
02:23AM 48.5423 -123.1500 180° South  Level FlightAware Approximate
02:23AM 48.9333 -123.5500 213° Southwest 370 426 14,100  Level Vancouver Center
02:24AM 48.4271 -123.1500 180° South  Level FlightAware Approximate
02:24AM 48.8333 -123.6500 213° Southwest 380 437 17,600  Level Vancouver Center
02:25AM 48.7500 -123.7167 208° Southwest 380 437 20,400 2,640 Climbing Vancouver Center
02:26AM 48.6667 -123.8167 218° Southwest 390 449 22,900 1,680 Climbing Vancouver Center
02:27AM 48.5667 -123.8833 204° Southwest 390 449 23,800 1,800 Climbing Vancouver Center
02:28AM 48.4667 -123.8500 168° South 380 437 26,600 2,100 Climbing Vancouver Center
02:29AM 48.3667 -123.8167 168° South 380 437 28,100 1,560 Climbing Vancouver Center
02:29AM 48.3083 -123.7906 163° South 385 443 29,300 1,620 Climbing Seattle Center
02:30AM 48.1994 -123.7547 168° South 396 456 30,900 1,440 Climbing Seattle Center
02:31AM 48.0906 -123.7186 168° South 398 458 32,300 1,560 Climbing Seattle Center
02:32AM 47.9803 -123.6814 167° South 404 465 34,100 1,200 Climbing Seattle Center
02:33AM 47.8678 -123.6439 167° South 410 472 34,800 900 Climbing Seattle Center
02:34AM 47.7508 -123.6061 168° South 426 490 36,000 1,140 Climbing Seattle Center
02:35AM 47.6375 -123.5697 168° South 433 498 37,200 960 Climbing Seattle Center
02:36AM 47.5200 -123.5306 167° South 436 502 38,000 840 Climbing Seattle Center
02:37AM 47.4019 -123.4922 168° South 440 506 39,000 480 Climbing Seattle Center
02:38AM 47.2847 -123.4542 168° South 438 504 39,000  Level Seattle Center
02:39AM 47.1664 -123.4172 168° South 440 506 39,000  Level Seattle Center
02:40AM 47.0200 -123.4031 176° South 447 514 39,000  Level Seattle Center
02:41AM 46.8981 -123.3972 178° South 445 512 39,000  Level Seattle Center
02:42AM 46.7756 -123.3919 178° South 446 513 39,000  Level Seattle Center
02:43AM 46.6550 -123.3903 179° South 440 506 39,000  Level Seattle Center
02:44AM 46.5328 -123.3858 179° South 442 509 39,000  Level Seattle Center
02:45AM 46.4089 -123.3783 178° South 447 514 39,000  Level Seattle Center
02:46AM 46.2836 -123.3717 178° South 449 517 39,000  Level Seattle Center
02:47AM 46.1589 -123.3669 178° South 450 518 39,000  Level Seattle Center
02:48AM 46.0347 -123.3619 178° South 448 516 39,000  Level Seattle Center
02:49AM 45.9119 -123.3575 179° South 443 510 39,000 -60 Level Seattle Center
02:50AM 45.7897 -123.3519 178° South 440 506 38,900 -60 Descending Seattle Center
02:51AM 45.6683 -123.3450 178° South 438 504 38,900  Level Seattle Center
02:52AM 45.5447 -123.3406 179° South 444 511 39,000  Climbing Seattle Center
02:53AM 45.4203 -123.3353 178° South 444 511 39,000  Level Seattle Center
02:54AM 45.2950 -123.3269 177° South 448 516 39,000  Level Seattle Center
02:55AM 45.1694 -123.3217 178° South 451 519 39,000  Level Seattle Center
02:56AM 45.0425 -123.3167 178° South 452 520 39,000  Level Seattle Center
02:57AM 44.9131 -123.3117 178° South 456 525 39,000  Level Seattle Center
02:58AM 44.7842 -123.3047 178° South 455 524 39,000  Level Seattle Center
02:59AM 44.6553 -123.2994 178° South 459 528 39,000  Level Seattle Center
03:01AM 44.5264 -123.2939 178° South 461 531 39,000  Level Seattle Center
03:02AM 44.4000 -123.2975 181° South 457 526 39,000  Level Seattle Center
03:03AM 44.2708 -123.3019 181° South 463 533 39,000 -60 Level Seattle Center
03:04AM 44.1422 -123.3097 182° South 462 532 38,900  Descending Seattle Center
03:05AM 44.0233 -123.3139 181° South 459 528 39,000  Climbing Seattle Center
03:06AM 43.8958 -123.3200 182° South 458 527 39,000  Level Seattle Center
03:07AM 43.7414 -123.3256 181° South 462 532 39,000  Level Seattle Center
03:08AM 43.6133 -123.3336 183° South 460 529 39,000  Level Seattle Center
03:09AM 43.4869 -123.3372 181° South 455 524 39,000  Level Seattle Center
03:10AM 43.3594 -123.3425 182° South 457 526 39,000  Level Seattle Center
03:11AM 43.2322 -123.3486 182° South 458 527 39,000  Level Seattle Center
03:12AM 43.1053 -123.3506 181° South 456 525 39,000  Level Seattle Center
03:13AM 42.9775 -123.3464 179° South 458 527 39,000  Level Seattle Center
03:14AM 42.8497 -123.3447 179° South 459 528 39,000  Level Seattle Center
03:15AM 42.7217 -123.3414 179° South 460 529 39,000  Level Seattle Center
03:16AM 42.6000 -123.3406 180° South 462 532 39,000  Level Seattle Center
03:17AM 42.4711 -123.3372 179° South 465 535 39,000  Level Seattle Center
03:18AM 42.3428 -123.3347 179° South 464 534 39,000  Level Seattle Center
03:19AM 42.2117 -123.3328 179° South 472 543 39,000  Level Seattle Center
03:20AM 42.0806 -123.3283 179° South 474 545 39,000  Level Seattle Center
03:21AM 41.9494 -123.3258 179° South 473 544 39,000  Level Seattle Center
03:22AM 41.8189 -123.3236 179° South 472 543 39,100  Climbing Seattle Center
03:23AM 41.6900 -123.3192 179° South 467 537 39,000 -120 Descending Seattle Center
03:23AM 41.6211 -123.3147 177° South 465 535 39,000  Level Oakland Center
03:24AM 41.4931 -123.2961 174° South 463 533 39,000  Level Oakland Center
03:25AM 41.3636 -123.2806 175° South 460 529 39,000  Level Oakland Center
03:26AM 41.2253 -123.2606 174° South 462 532 39,000  Level Oakland Center
03:27AM 41.0967 -123.2469 175° South 464 534 39,000  Level Oakland Center
03:28AM 40.9806 -123.2300 174° South 463 533 39,000  Level Oakland Center
03:29AM 40.8519 -123.2139 175° South 464 534 39,000  Level Oakland Center
03:30AM 40.7125 -123.1956 174° South 466 536 39,000  Level Oakland Center
03:31AM 40.5839 -123.1789 174° South 467 537 39,000  Level Oakland Center
03:32AM 40.4539 -123.1631 175° South 471 542 39,000  Level Oakland Center
03:33AM 40.3250 -123.1458 174° South 470 541 39,000  Level Oakland Center
03:34AM 40.1961 -123.1294 174° South 469 540 39,000  Level Oakland Center
03:35AM 40.0647 -123.1139 175° South 475 547 39,000  Level Oakland Center
03:36AM 39.9111 -123.0944 174° South 467 537 39,000  Level Oakland Center
03:37AM 39.7817 -123.0786 175° South 470 541 39,000  Level Oakland Center
03:38AM 39.6506 -123.0608 174° South 476 548 39,000  Level Oakland Center
03:39AM 39.5203 -123.0450 175° South 474 545 39,000  Level Oakland Center
03:40AM 39.4061 -123.0286 174° South 460 529 39,000 -60 Level Oakland Center
03:41AM 39.2778 -123.0117 174° South 464 534 38,900 -300 Descending Oakland Center
03:42AM 39.1489 -122.9978 175° South 466 536 38,500 -1,620 Descending Oakland Center
03:43AM 39.0225 -122.9808 174° South 458 527 35,700 -3,240 Descending Oakland Center
03:44AM 38.8894 -122.9653 175° South 477 549 32,000 -3,960 Descending Oakland Center
03:45AM 38.7556 -122.9481 174° South 486 559 27,800 -3,780 Descending Oakland Center
03:46AM 38.6169 -122.9336 175° South 499 574 24,500 -3,180 Descending Oakland Center
03:47AM 38.4875 -122.9172 174° South 471 542 21,400 -3,300 Descending Oakland Center
03:48AM 38.3397 -122.8986 174° South 448 516 17,900 -2,940 Descending Oakland Center
03:49AM 38.2233 -122.8853 175° South 426 490 15,500 -2,040 Descending Oakland Center
03:50AM 38.1119 -122.8719 175° South 408 470 13,800 -1,740 Descending Oakland Center
03:51AM 38.0172 -122.8011 149° Southeast 415 478 12,100 -1,440 Descending Oakland Center
03:52AM 37.9333 -122.7122 140° Southeast 405 466 10,900 -600 Descending Oakland Center
03:53AM 37.8511 -122.6231 139° Southeast 405 466 11,000  Climbing Oakland Center
03:54AM 37.7833 -122.5333 134° Southeast 378 435 11,000  Level Northern Cal TRACON
03:55AM 37.7000 -122.4667 148° Southeast 301 346 11,000  Level Northern Cal TRACON
03:56AM 37.6500 -122.4167 142° Southeast 243 280 11,000  Level Northern Cal TRACON
03:57AM 37.6000 -122.3500 133° Southeast 236 272 11,000 -300 Level Northern Cal TRACON
03:58AM 37.5333 -122.3167 158° South 231 266 10,400 -1,140 Descending Northern Cal TRACON
03:59AM 37.4833 -122.2833 152° Southeast 232 267 8,800 -1,440 Descending Northern Cal TRACON
04:00AM 37.4167 -122.3000 191° South 217 250 7,600 -900 Descending Northern Cal TRACON
04:01AM 37.3667 -122.3167 195° South 209 241 7,000 -300 Descending Northern Cal TRACON
04:02AM 37.3239 -122.2758 143° Southeast 216 249 7,000 -480 Level Oakland Center
04:03AM 37.3350 -122.2036 79° East 211 243 6,000 -720 Descending Oakland Center
04:04AM 37.3683 -122.1528 50° Northeast 193 222 5,600 -900 Descending Oakland Center
04:05AM 37.4167 -122.1333 18° North 184 212 4,300 -900 Descending Northern Cal TRACON
04:06AM 37.4667 -122.1333 360° North 173 199 4,000 -720 Descending Northern Cal TRACON
04:07AM 37.5000 -122.1667 322° Northwest 158 182 2,900 -1,080 Descending Northern Cal TRACON
04:08AM 37.5333 -122.2000 322° Northwest 141 162 1,900 -1,020 Descending Northern Cal TRACON